Terminal Aerodrome Forecast
Issued by NWS

Home | Current Version | Previous Version | Text Only | Print | Product List | Glossary On
Versions: 1 2 3 4 5 6 7 8 9 10 11 12 13
000
FTAK31 PAFA 230221 AAA
TAFABT
TAF AMD
PABT 230221Z 2302/2324 00000KT 2SM -SN BR OVC022
      TEMPO 2302/2305 3/4SM -SN BR
     FM230500 VRB04KT 4SM -SN BR SCT025 BKN035 OVC050
     FM231200 VRB04KT P6SM VCSH BKN025 BKN035 OVC050
     FM231500 VRB04KT P6SM SCT035 BKN050 OVC100=

USA.gov is the U.S. government's official web portal to all federal, state and local government web resources and services.